createdAt,value
2018-06-12T00:01:01.951Z,4.37
2018-06-12T00:03:30.540Z,4.90
2018-06-12T00:05:59.137Z,3.80
2018-06-12T00:08:27.749Z,4.20
2018-06-12T00:10:56.301Z,3.73
2018-06-12T00:13:24.913Z,4.33
2018-06-12T00:15:53.465Z,4.60
2018-06-12T00:18:22.061Z,4.07
2018-06-12T00:20:50.608Z,4.23
2018-06-12T00:23:19.197Z,3.90
2018-06-12T00:25:47.773Z,4.57
2018-06-12T00:28:16.044Z,4.10
2018-06-12T00:30:44.658Z,4.70
2018-06-12T00:33:12.936Z,4.60
2018-06-12T00:35:41.484Z,4.43
2018-06-12T00:38:09.743Z,4.73
2018-06-12T00:40:37.962Z,4.23
2018-06-12T00:43:06.529Z,4.30
2018-06-12T00:45:34.761Z,4.40
2018-06-12T00:48:03.330Z,4.20
2018-06-12T00:50:31.663Z,3.50
2018-06-12T00:52:59.893Z,3.87
2018-06-12T00:55:28.498Z,4.23
2018-06-12T00:57:57.044Z,6.93
2018-06-12T01:00:25.653Z,3.63
2018-06-12T01:02:53.867Z,4.27
2018-06-12T01:05:22.173Z,4.63
2018-06-12T01:07:50.392Z,4.10
2018-06-12T01:10:18.630Z,5.13
2018-06-12T01:12:46.892Z,4.30
2018-06-12T01:15:15.143Z,4.73
2018-06-12T01:17:43.366Z,3.80
2018-06-12T01:20:11.830Z,3.60
2018-06-12T01:22:40.084Z,3.93
2018-06-12T01:25:08.342Z,3.97
2018-06-12T01:27:36.562Z,3.47
2018-06-12T01:30:04.832Z,3.50
2018-06-12T01:32:33.077Z,5.43
2018-06-12T01:35:01.337Z,4.10
2018-06-12T01:37:29.587Z,4.40
2018-06-12T01:39:57.821Z,4.43
2018-06-12T01:42:26.042Z,4.20
2018-06-12T01:44:54.274Z,4.53
2018-06-12T01:47:22.600Z,3.80
2018-06-12T01:49:50.824Z,4.40
2018-06-12T01:52:19.381Z,3.83
2018-06-12T01:54:47.624Z,3.70
2018-06-12T01:57:15.857Z,4.30
2018-06-12T01:59:44.133Z,4.30
2018-06-12T02:02:12.389Z,4.37
2018-06-12T02:04:40.654Z,4.30
2018-06-12T02:07:08.882Z,3.83
2018-06-12T02:09:37.158Z,4.30
2018-06-12T02:12:05.409Z,4.00
2018-06-12T02:14:33.673Z,3.97
2018-06-12T02:17:01.946Z,3.43
2018-06-12T02:19:30.176Z,4.50
2018-06-12T02:21:58.462Z,4.37
2018-06-12T02:24:26.671Z,4.30
2018-06-12T02:26:54.958Z,3.83
2018-06-12T02:29:23.225Z,4.30
2018-06-12T02:31:51.453Z,4.23
2018-06-12T02:34:19.745Z,4.67
2018-06-12T02:36:48.306Z,4.33
2018-06-12T02:39:16.519Z,4.53
2018-06-12T02:41:44.762Z,4.17
2018-06-12T02:44:12.968Z,3.70
2018-06-12T02:46:41.210Z,4.80
2018-06-12T02:49:09.786Z,5.07
2018-06-12T02:51:38.406Z,5.00
2018-06-12T02:54:06.975Z,5.80
2018-06-12T02:56:35.581Z,5.20
2018-06-12T02:59:03.840Z,4.30
2018-06-12T03:01:32.417Z,4.37
2018-06-12T03:04:00.971Z,5.97
2018-06-12T03:06:29.210Z,5.10
2018-06-12T03:08:57.422Z,5.20
2018-06-12T03:11:25.691Z,5.20
2018-06-12T03:13:54.258Z,5.23
2018-06-12T03:16:22.858Z,5.20
2018-06-12T03:18:51.074Z,5.90
2018-06-12T03:21:19.347Z,5.87
2018-06-12T03:23:47.553Z,7.20
2018-06-12T03:26:15.826Z,6.67
2018-06-12T03:28:44.047Z,7.30
2018-06-12T03:31:12.318Z,8.47
2018-06-12T03:33:40.565Z,6.03
2018-06-12T03:36:08.911Z,6.00
2018-06-12T03:38:37.146Z,4.80
2018-06-12T03:41:05.389Z,5.33
2018-06-12T03:43:33.644Z,5.07
2018-06-12T03:46:01.894Z,5.00
2018-06-12T03:48:30.482Z,4.93
2018-06-12T03:50:58.710Z,5.00
2018-06-12T03:53:27.294Z,4.70
2018-06-12T03:55:55.517Z,4.40
2018-06-12T03:58:24.076Z,5.20
2018-06-12T04:00:52.342Z,4.20
2018-06-12T04:03:20.627Z,5.07
2018-06-12T04:05:48.833Z,4.17
2018-06-12T04:08:17.116Z,4.80
2018-06-12T04:10:45.721Z,5.37
2018-06-12T04:13:14.005Z,5.17
2018-06-12T04:15:42.235Z,5.53
2018-06-12T04:18:10.490Z,5.10
2018-06-12T04:20:38.698Z,5.67
2018-06-12T04:23:06.957Z,5.70
2018-06-12T04:25:35.165Z,4.70
2018-06-12T04:28:03.431Z,3.90
2018-06-12T04:30:31.650Z,5.00
2018-06-12T04:32:59.909Z,4.87
2018-06-12T04:35:28.153Z,4.20
2018-06-12T04:37:56.404Z,4.40
2018-06-12T04:40:24.649Z,4.70
2018-06-12T04:42:52.870Z,4.93
2018-06-12T04:45:21.109Z,6.90
2018-06-12T04:47:49.345Z,5.40
2018-06-12T04:50:17.593Z,6.00
2018-06-12T04:52:45.891Z,5.70
2018-06-12T04:55:14.129Z,6.17
2018-06-12T04:57:42.381Z,5.90
2018-06-12T05:00:10.621Z,5.37
2018-06-12T05:02:38.855Z,5.30
2018-06-12T05:05:07.121Z,5.60
2018-06-12T05:07:35.328Z,5.80
2018-06-12T05:10:03.915Z,4.40
2018-06-12T05:12:32.176Z,5.87
2018-06-12T05:15:00.697Z,5.57
2018-06-12T05:17:28.924Z,5.20
2018-06-12T05:19:57.180Z,5.00
2018-06-12T05:22:25.405Z,4.50
2018-06-12T05:24:53.641Z,5.03
2018-06-12T05:27:21.876Z,5.40
2018-06-12T05:29:50.158Z,5.80
2018-06-12T05:32:18.410Z,6.07
2018-06-12T05:34:46.690Z,16.47
2018-06-12T05:37:14.910Z,13.40
2018-06-12T05:39:43.192Z,8.87
2018-06-12T05:42:11.528Z,9.03
2018-06-12T05:44:39.789Z,10.80
2018-06-12T05:47:08.049Z,11.00
2018-06-12T05:49:36.286Z,8.50
2018-06-12T05:52:04.507Z,8.40
2018-06-12T05:54:32.718Z,8.23
2018-06-12T05:57:01.045Z,7.50
2018-06-12T05:59:29.281Z,7.57
2018-06-12T06:01:57.557Z,7.20
2018-06-12T06:04:25.766Z,5.80
2018-06-12T06:06:54.032Z,5.00
2018-06-12T06:09:22.250Z,5.63
2018-06-12T06:11:50.514Z,5.27
2018-06-12T06:14:18.745Z,6.67
2018-06-12T06:16:47.017Z,9.33
2018-06-12T06:19:15.226Z,6.13
2018-06-12T06:21:43.467Z,5.50
2018-06-12T06:24:11.709Z,5.67
2018-06-12T06:26:39.948Z,6.20
2018-06-12T06:29:08.250Z,5.67
2018-06-12T06:31:37.918Z,4.97
2018-06-12T06:34:06.195Z,5.60
2018-06-12T06:36:34.445Z,5.50
2018-06-12T06:39:02.706Z,4.80
2018-06-12T06:41:30.938Z,4.80
2018-06-12T06:43:59.160Z,5.20
2018-06-12T06:46:27.382Z,4.63
2018-06-12T06:48:55.753Z,5.60
2018-06-12T06:51:24.017Z,5.43
2018-06-12T06:53:52.278Z,4.80
2018-06-12T06:56:20.537Z,5.20
2018-06-12T06:58:48.762Z,6.00
2018-06-12T07:01:16.983Z,5.33
2018-06-12T07:03:45.237Z,4.87
2018-06-12T07:06:13.485Z,6.10
2018-06-12T07:08:41.734Z,5.30
2018-06-12T07:11:09.959Z,4.87
2018-06-12T07:13:38.226Z,5.27
2018-06-12T07:16:06.534Z,4.17
2018-06-12T07:18:34.769Z,4.10
2018-06-12T07:21:05.171Z,3.80
2018-06-12T07:23:33.514Z,4.23
2018-06-12T07:26:01.823Z,3.80
2018-06-12T07:28:30.094Z,3.53
2018-06-12T07:30:58.329Z,3.83
2018-06-12T07:33:26.570Z,3.10
2018-06-12T07:35:54.819Z,2.87
2018-06-12T07:38:23.091Z,2.70
2018-06-12T07:40:51.317Z,2.80
2018-06-12T07:43:19.564Z,3.30
2018-06-12T07:45:47.782Z,3.00
2018-06-12T07:48:16.066Z,2.87
2018-06-12T07:50:44.275Z,3.03
2018-06-12T07:53:12.561Z,3.13
2018-06-12T07:55:40.830Z,2.70
2018-06-12T07:58:09.403Z,3.40
2018-06-12T08:00:37.622Z,2.73
2018-06-12T08:03:05.877Z,3.00
2018-06-12T08:05:34.125Z,3.30
2018-06-12T08:08:02.378Z,2.80
2018-06-12T08:10:30.621Z,3.10
2018-06-12T08:12:59.003Z,2.50
2018-06-12T08:15:27.144Z,2.90
2018-06-12T08:17:55.390Z,3.10
2018-06-12T08:20:23.629Z,2.43
2018-06-12T08:22:51.894Z,2.90
2018-06-12T08:25:20.122Z,3.60
2018-06-12T08:27:48.460Z,3.27
2018-06-12T08:30:16.720Z,3.67
2018-06-12T08:32:44.950Z,3.50
2018-06-12T08:35:13.214Z,4.10
2018-06-12T08:37:41.473Z,4.27
2018-06-12T08:40:09.710Z,3.20
2018-06-12T08:42:37.949Z,5.00
2018-06-12T08:45:06.219Z,4.47
2018-06-12T08:47:34.435Z,3.40
2018-06-12T08:50:02.697Z,4.47
2018-06-12T08:52:30.908Z,3.70
2018-06-12T08:54:59.196Z,3.50
2018-06-12T08:57:27.460Z,4.00
2018-06-12T08:59:55.761Z,3.83
2018-06-12T09:02:24.015Z,4.20
2018-06-12T09:04:52.332Z,3.40
2018-06-12T09:07:20.589Z,4.67
2018-06-12T09:09:48.845Z,3.90
2018-06-12T09:12:17.082Z,3.47
2018-06-12T09:14:45.441Z,3.50
2018-06-12T09:17:13.710Z,4.40
2018-06-12T09:19:42.025Z,4.10
2018-06-12T09:22:10.270Z,3.97
2018-06-12T09:24:38.567Z,3.47
2018-06-12T09:27:06.819Z,4.80
2018-06-12T09:29:35.167Z,3.87
2018-06-12T09:32:03.576Z,3.90
2018-06-12T09:34:31.836Z,5.50
2018-06-12T09:37:00.101Z,6.80
2018-06-12T09:39:28.394Z,6.03
2018-06-12T09:41:56.726Z,10.77
2018-06-12T09:44:25.082Z,9.87
2018-06-12T09:46:53.355Z,11.00
2018-06-12T09:49:21.630Z,11.70
2018-06-12T09:51:49.881Z,12.60
2018-06-12T09:54:18.298Z,12.90
2018-06-12T09:56:46.574Z,13.33
2018-06-12T09:59:14.841Z,13.53
2018-06-12T10:01:43.112Z,14.10
2018-06-12T10:04:11.388Z,29.10
2018-06-12T10:06:39.673Z,27.40
2018-06-12T10:09:07.972Z,30.00
2018-06-12T10:11:36.222Z,26.20
2018-06-12T10:14:04.466Z,27.60
2018-06-12T10:16:32.771Z,24.80
2018-06-12T10:19:00.999Z,25.20
2018-06-12T10:21:29.306Z,23.50
2018-06-12T10:23:57.569Z,23.50
2018-06-12T10:26:25.854Z,19.70
2018-06-12T10:28:55.308Z,23.27
2018-06-12T10:31:23.592Z,23.70
2018-06-12T10:33:53.474Z,23.03
2018-06-12T10:36:21.833Z,24.00
2018-06-12T10:38:50.113Z,21.37
2018-06-12T10:41:18.388Z,25.50
2018-06-12T10:43:46.694Z,26.53
2018-06-12T10:46:14.980Z,26.40
2018-06-12T10:48:43.299Z,27.57
2018-06-12T10:51:11.594Z,25.07
2018-06-12T10:53:39.877Z,25.97
2018-06-12T10:56:08.120Z,24.67
2018-06-12T10:58:36.390Z,22.80
2018-06-12T11:01:04.712Z,22.37
2018-06-12T11:03:32.957Z,19.17
2018-06-12T11:06:01.241Z,16.80
2018-06-12T11:08:29.537Z,19.07
2018-06-12T11:10:57.825Z,20.33
2018-06-12T11:13:26.118Z,20.70
2018-06-12T11:15:54.381Z,22.67
2018-06-12T11:18:22.617Z,24.43
2018-06-12T11:20:50.924Z,25.53
2018-06-12T11:23:21.015Z,23.77
2018-06-12T11:25:50.205Z,20.77
2018-06-12T11:28:20.129Z,22.70
2018-06-12T11:30:48.468Z,22.73
2018-06-12T11:33:16.768Z,22.83
2018-06-12T11:35:45.033Z,22.57
2018-06-12T11:38:13.347Z,26.93
2018-06-12T11:40:44.484Z,25.37
2018-06-12T11:43:12.887Z,26.40
2018-06-12T11:45:41.173Z,25.07
2018-06-12T11:48:09.486Z,26.43
2018-06-12T11:50:37.759Z,19.10
2018-06-12T11:53:06.029Z,13.70
2018-06-12T11:55:34.246Z,14.57
2018-06-12T11:58:02.657Z,11.47
2018-06-12T12:00:30.897Z,10.47
2018-06-12T12:02:59.214Z,8.33
2018-06-12T12:05:27.448Z,7.77
2018-06-12T12:07:55.714Z,7.30
2018-06-12T12:10:23.967Z,7.30
2018-06-12T12:12:52.246Z,10.70
2018-06-12T12:15:20.469Z,6.90
2018-06-12T12:17:48.726Z,9.40
2018-06-12T12:20:16.952Z,12.53
2018-06-12T12:22:45.312Z,12.10
2018-06-12T12:25:13.691Z,10.27
2018-06-12T12:27:41.983Z,9.90
2018-06-12T12:30:10.246Z,7.20
2018-06-12T12:32:38.507Z,4.07
2018-06-12T12:35:06.891Z,3.10
2018-06-12T12:37:35.115Z,2.63
2018-06-12T12:40:03.393Z,2.03
2018-06-12T12:42:31.623Z,1.97
2018-06-12T12:44:59.874Z,2.67
2018-06-12T12:47:28.093Z,2.80
2018-06-12T12:49:56.339Z,2.70
2018-06-12T12:52:24.553Z,4.60
2018-06-12T12:54:52.808Z,3.43
2018-06-12T12:57:21.049Z,3.50
2018-06-12T12:59:49.559Z,4.07
2018-06-12T13:02:18.131Z,3.03
2018-06-12T13:04:46.767Z,3.80
2018-06-12T13:07:15.012Z,3.50
2018-06-12T13:09:43.273Z,3.13
2018-06-12T13:12:11.504Z,3.00
2018-06-12T13:14:39.782Z,3.20
2018-06-12T13:17:07.989Z,3.53
2018-06-12T13:19:36.250Z,3.40
2018-06-12T13:22:04.475Z,2.60
2018-06-12T13:24:32.721Z,2.53
2018-06-12T13:27:00.951Z,3.30
2018-06-12T13:29:29.182Z,3.20
2018-06-12T13:31:57.415Z,3.20
2018-06-12T13:34:26.023Z,2.97
2018-06-12T13:36:54.820Z,3.97
2018-06-12T13:39:23.101Z,5.63
2018-06-12T13:41:51.659Z,6.07
2018-06-12T13:44:20.373Z,6.57
2018-06-12T13:46:48.956Z,5.60
2018-06-12T13:49:17.522Z,7.50
2018-06-12T13:51:46.093Z,6.87
2018-06-12T13:54:14.654Z,6.53
2018-06-12T13:56:42.938Z,6.60
2018-06-12T13:59:11.163Z,6.50
2018-06-12T14:01:39.756Z,4.90
2018-06-12T14:04:08.339Z,4.90
2018-06-12T14:06:36.943Z,5.03
2018-06-12T14:09:07.631Z,5.50
2018-06-12T14:11:36.219Z,6.13
2018-06-12T14:14:04.863Z,6.33
2018-06-12T14:16:33.454Z,5.77
2018-06-12T14:19:02.051Z,6.70
2018-06-12T14:21:30.609Z,6.70
2018-06-12T14:23:59.158Z,5.90
2018-06-12T14:26:27.790Z,6.50
2018-06-12T14:28:56.025Z,6.87
2018-06-12T14:31:24.811Z,6.40
2018-06-12T14:33:53.485Z,5.90
2018-06-12T14:36:22.102Z,6.30
2018-06-12T14:38:50.686Z,7.20
2018-06-12T14:41:19.294Z,6.67
2018-06-12T14:43:47.893Z,6.03
2018-06-12T14:46:16.531Z,6.77
2018-06-12T14:48:45.092Z,6.50
2018-06-12T14:51:13.695Z,5.73
2018-06-12T14:53:42.494Z,6.37
2018-06-12T14:56:11.102Z,6.17
2018-06-12T14:58:39.694Z,6.17
2018-06-12T15:01:07.945Z,5.23
2018-06-12T15:03:36.181Z,6.60
2018-06-12T15:06:04.770Z,6.00
2018-06-12T15:08:33.345Z,6.53
2018-06-12T15:11:01.970Z,6.00
2018-06-12T15:13:30.268Z,6.93
2018-06-12T15:15:58.887Z,6.20
2018-06-12T15:18:27.523Z,5.43
2018-06-12T15:20:56.101Z,6.53
2018-06-12T15:23:24.352Z,6.50
2018-06-12T15:25:52.995Z,6.70
2018-06-12T15:28:21.622Z,6.03
2018-06-12T15:30:50.215Z,6.70
2018-06-12T15:33:18.918Z,6.70
2018-06-12T15:35:47.448Z,7.60
2018-06-12T15:38:16.035Z,7.80
2018-06-12T15:40:44.622Z,13.23
2018-06-12T15:43:13.291Z,16.33
2018-06-12T15:45:41.859Z,19.80
2018-06-12T15:48:10.467Z,18.10
2018-06-12T15:50:39.043Z,18.30
2018-06-12T15:53:07.672Z,19.30
2018-06-12T15:55:36.255Z,19.30
2018-06-12T15:58:04.538Z,17.40
2018-06-12T16:00:32.772Z,14.27
2018-06-12T16:03:01.386Z,15.93
2018-06-12T16:05:30.852Z,12.73
2018-06-12T16:07:59.479Z,14.07
2018-06-12T16:10:28.110Z,15.30
2018-06-12T16:12:56.748Z,13.67
2018-06-12T16:15:24.962Z,15.13
2018-06-12T16:17:53.603Z,15.30
2018-06-12T16:20:22.166Z,15.60
2018-06-12T16:22:50.769Z,16.83
2018-06-12T16:25:18.993Z,15.63
2018-06-12T16:27:47.587Z,15.40
2018-06-12T16:30:16.151Z,15.10
2018-06-12T16:32:44.797Z,15.27
2018-06-12T16:35:13.383Z,15.83
2018-06-12T16:37:41.671Z,14.50
2018-06-12T16:40:10.252Z,17.30
2018-06-12T16:42:38.823Z,18.33
2018-06-12T16:45:07.487Z,17.13
2018-06-12T16:47:36.084Z,17.37
2018-06-12T16:50:04.436Z,19.00
2018-06-12T16:52:32.998Z,17.30
2018-06-12T16:55:01.582Z,16.87
2018-06-12T16:57:30.172Z,18.07
2018-06-12T16:59:58.798Z,18.87
2018-06-12T17:02:27.395Z,18.97
2018-06-12T17:04:56.006Z,19.77
2018-06-12T17:07:24.681Z,20.50
2018-06-12T17:09:53.508Z,22.13
2018-06-12T17:12:22.086Z,20.23
2018-06-12T17:14:50.739Z,22.67
2018-06-12T17:17:19.332Z,21.00
2018-06-12T17:19:48.079Z,21.80
2018-06-12T17:22:16.679Z,21.13
2018-06-12T17:24:45.262Z,21.97
2018-06-12T17:27:13.843Z,23.00
2018-06-12T17:29:42.438Z,21.93
2018-06-12T17:32:11.030Z,24.70
2018-06-12T17:34:39.631Z,23.07
2018-06-12T17:37:08.198Z,25.77
2018-06-12T17:39:36.791Z,28.63
2018-06-12T17:42:05.124Z,28.10
2018-06-12T17:44:33.376Z,28.40
2018-06-12T17:47:01.954Z,28.60
2018-06-12T17:49:30.231Z,28.40
2018-06-12T17:51:58.466Z,27.70
2018-06-12T17:54:27.058Z,29.30
2018-06-12T17:56:55.296Z,26.00
2018-06-12T17:59:23.862Z,27.93
2018-06-12T18:01:52.458Z,27.90
2018-06-12T18:04:20.680Z,29.27
2018-06-12T18:06:51.960Z,29.67
2018-06-12T18:09:20.445Z,26.80
2018-06-12T18:11:50.933Z,26.50
2018-06-12T18:14:19.389Z,26.10
2018-06-12T18:16:47.640Z,23.80
2018-06-12T18:19:15.929Z,23.17
2018-06-12T18:21:44.220Z,25.13
2018-06-12T18:24:12.471Z,22.83
2018-06-12T18:26:41.143Z,22.40
2018-06-12T18:29:09.744Z,22.87
2018-06-12T18:31:38.355Z,22.00
2018-06-12T18:34:06.618Z,22.20
2018-06-12T18:36:35.200Z,21.07
2018-06-12T18:39:04.077Z,21.23
2018-06-12T18:41:32.650Z,21.83
2018-06-12T18:44:01.212Z,19.00
2018-06-12T18:46:29.468Z,20.50
2018-06-12T18:48:58.032Z,19.27
2018-06-12T18:51:26.625Z,19.37
2018-06-12T18:53:55.202Z,19.67
2018-06-12T18:56:24.709Z,19.97
2018-06-12T18:58:53.670Z,18.20
2018-06-12T19:01:25.307Z,18.40
2018-06-12T19:03:55.544Z,16.50
2018-06-12T19:06:25.855Z,18.07
2018-06-12T19:08:56.713Z,16.70
2018-06-12T19:11:27.341Z,16.40
2018-06-12T19:13:56.948Z,16.43
2018-06-12T19:16:26.354Z,16.10
2018-06-12T19:18:55.391Z,16.43
2018-06-12T19:21:25.629Z,16.67
2018-06-12T19:23:53.918Z,15.07
2018-06-12T19:26:22.965Z,16.00
2018-06-12T19:28:52.085Z,15.83
2018-06-12T19:31:22.614Z,16.40
2018-06-12T19:33:53.385Z,14.33
2018-06-12T19:36:21.733Z,12.77
2018-06-12T19:38:50.954Z,14.60
2018-06-12T19:41:19.854Z,12.80
2018-06-12T19:43:48.081Z,13.00
2018-06-12T19:46:16.677Z,13.27
2018-06-12T19:48:44.936Z,13.30
2018-06-12T19:51:13.181Z,13.70
2018-06-12T19:53:41.410Z,13.20
2018-06-12T19:56:09.662Z,11.10
2018-06-12T19:58:38.271Z,12.30
2018-06-12T20:01:06.589Z,10.80
2018-06-12T20:03:35.181Z,13.23
2018-06-12T20:06:03.841Z,12.13
2018-06-12T20:08:32.446Z,12.80
2018-06-12T20:11:00.695Z,10.53
2018-06-12T20:13:28.970Z,11.40
2018-06-12T20:15:57.646Z,10.90
2018-06-12T20:18:26.258Z,12.20
2018-06-12T20:20:54.491Z,11.07
2018-06-12T20:23:23.090Z,11.50
2018-06-12T20:25:51.663Z,12.50
2018-06-12T20:28:20.239Z,11.37
2018-06-12T20:30:48.473Z,10.30
2018-06-12T20:33:16.753Z,12.67
2018-06-12T20:35:44.996Z,10.60
2018-06-12T20:38:13.583Z,10.70
2018-06-12T20:40:42.164Z,11.07
2018-06-12T20:43:10.773Z,10.63
2018-06-12T20:45:39.017Z,11.60
2018-06-12T20:48:07.636Z,11.90
2018-06-12T20:50:35.894Z,12.50
2018-06-12T20:53:04.156Z,11.10
2018-06-12T20:55:32.826Z,11.30
2018-06-12T20:58:01.428Z,11.67
2018-06-12T21:00:29.990Z,12.33
2018-06-12T21:02:58.565Z,11.33
2018-06-12T21:05:27.150Z,10.47
2018-06-12T21:07:55.457Z,10.90
2018-06-12T21:10:24.032Z,12.73
2018-06-12T21:12:52.628Z,11.97
2018-06-12T21:15:20.914Z,12.70
2018-06-12T21:17:49.198Z,12.30
2018-06-12T21:20:17.770Z,13.80
2018-06-12T21:22:46.011Z,12.60
2018-06-12T21:25:14.631Z,13.00
2018-06-12T21:27:43.283Z,12.20
2018-06-12T21:30:11.935Z,13.40
2018-06-12T21:32:40.193Z,12.97
2018-06-12T21:35:08.425Z,12.07
2018-06-12T21:37:36.791Z,12.13
2018-06-12T21:40:05.116Z,13.10
2018-06-12T21:42:33.334Z,12.57
2018-06-12T21:45:01.916Z,14.20
2018-06-12T21:47:30.516Z,12.40
2018-06-12T21:49:59.087Z,11.17
2018-06-12T21:52:27.667Z,11.17
2018-06-12T21:54:55.913Z,11.80
2018-06-12T21:57:24.471Z,10.93
2018-06-12T21:59:52.720Z,10.60
2018-06-12T22:02:21.277Z,10.77
2018-06-12T22:04:49.656Z,9.93
2018-06-12T22:07:17.832Z,10.40
2018-06-12T22:09:46.418Z,10.10
2018-06-12T22:12:14.984Z,9.57
2018-06-12T22:14:43.638Z,8.20
2018-06-12T22:17:12.301Z,8.47
2018-06-12T22:19:40.937Z,9.10
2018-06-12T22:22:09.543Z,9.47
2018-06-12T22:24:38.121Z,9.63
2018-06-12T22:27:06.709Z,10.40
2018-06-12T22:29:35.301Z,8.90
2018-06-12T22:32:03.988Z,9.50
2018-06-12T22:34:32.596Z,10.27
2018-06-12T22:37:01.159Z,11.00
2018-06-12T22:39:29.739Z,11.20
2018-06-12T22:41:58.282Z,9.70
2018-06-12T22:44:26.529Z,10.90
2018-06-12T22:46:55.094Z,11.03
2018-06-12T22:49:23.705Z,11.27
2018-06-12T22:51:52.251Z,12.20
2018-06-12T22:54:20.835Z,11.47
2018-06-12T22:56:49.497Z,11.13
2018-06-12T22:59:18.049Z,10.80
2018-06-12T23:01:46.624Z,11.63
2018-06-12T23:04:15.196Z,11.50
2018-06-12T23:06:43.857Z,11.80
2018-06-12T23:09:12.438Z,10.93
2018-06-12T23:11:42.739Z,10.53
2018-06-12T23:14:11.329Z,11.07
2018-06-12T23:16:39.924Z,11.43
2018-06-12T23:19:08.547Z,11.50
2018-06-12T23:21:48.363Z,10.13
2018-06-12T23:24:16.943Z,10.77
2018-06-12T23:26:45.574Z,9.70
2018-06-12T23:29:13.783Z,9.73
2018-06-12T23:31:42.366Z,12.03
2018-06-12T23:34:10.929Z,10.37
2018-06-12T23:36:39.511Z,10.10
2018-06-12T23:39:08.855Z,9.70
2018-06-12T23:41:37.438Z,8.00
2018-06-12T23:44:06.033Z,7.70
2018-06-12T23:46:34.630Z,8.90
2018-06-12T23:49:03.230Z,8.70
2018-06-12T23:51:31.834Z,8.43
2018-06-12T23:54:00.387Z,7.27
2018-06-12T23:56:28.970Z,8.83
2018-06-12T23:58:57.606Z,8.33
